Aérodrome :
LOGIN :

S'inscrire | Disclaimer

   EN    FR    IT 

 










Légende :    VFR   VFR Marginal   IFR   IFR Intensif   IFR Très Intensif
Visi : 
Plafond : 
>= 8 km
>= 3000ft
5 à 8 km
1000 à 3000 ft
1500m à 5 km
500 à 1000 ft
800 à 1500m
200 à 500 ft
< 800m
< 200 ft
Symboles :   Orages  Brouillard  Fortes neiges  Fortes précipitations  Vent > 20 kt
SIGMETs :   Divers  Orages  Givrage  Turbulence  Onde Orograph.  Cendres Volcan.






- Altitude de l'aérodrome : 124 ft
- Code IATA : RNS


LFRN - Rennes

DERNIER METAR :
  • 312100Z AUTO 18006KT 9999 FEW017 OVC150 12/11 Q1016 NOSIG

METARs EXPIRÉS :
  • 312030Z AUTO 20006KT CAVOK 12/11 Q1017 NOSIG
  • 312000Z AUTO 20006KT CAVOK 12/11 Q1017 NOSIG
  • 311930Z AUTO 21005KT 180V240 CAVOK 13/11 Q1016 NOSIG
  • 311900Z AUTO 18004KT 9999 FEW034 OVC140 13/11 Q1016 NOSIG
  • 311830Z AUTO 21007KT 9999 SCT036 BKN160 OVC190 13/11 Q1017 NOSIG

TAF TAF LFRN
Valide du 31 à 18h jusqu'au 01 à 18h UTC


311700Z 3118/0118 23010KT 9999 BKN030
BECMG 3123/0101 17010KT BKN008
TEMPO 0101/0118 3000 RADZ BKN004
BECMG 0103/0106 21020G30KT
ATIS : +33 2 99 67 72 50



MET'MAP, la Météo Aéronautique d'un coup d'oeil ! - Copyright ORBIFLY Décembre 2007 - Disclaimer

ORBIFLY MET'MAP TEAM :

Programmation & Développement : Alexandra Zaïnal
Sur une idée originale de : Baudouin d'Aumeries
Assistance à la programmation : Marc-Olivier Méhu
Soutien technique & logistique : Manuel Goepfert

Contact : metmap@orbifly.com




SOURCES & CREDITS :

   NOAA